sensor_id;sensor_type;location;lat;lon;timestamp;P1;durP1;ratioP1;P2;durP2;ratioP2
68484;SDS011;55472;50.060;21.960;2023-03-01T00:01:15;184.93;;;54.63;;
68484;SDS011;55472;50.060;21.960;2023-03-01T00:03:44;162.35;;;52.45;;
68484;SDS011;55472;50.060;21.960;2023-03-01T00:06:11;174.48;;;53.03;;
68484;SDS011;55472;50.060;21.960;2023-03-01T00:08:38;172.33;;;51.33;;
68484;SDS011;55472;50.060;21.960;2023-03-01T00:13:44;154.45;;;50.28;;
68484;SDS011;55472;50.060;21.960;2023-03-01T00:16:17;152.05;;;48.83;;
68484;SDS011;55472;50.060;21.960;2023-03-01T00:18:49;151.77;;;48.33;;
68484;SDS011;55472;50.060;21.960;2023-03-01T00:21:16;151.83;;;50.77;;
68484;SDS011;55472;50.060;21.960;2023-03-01T00:23:43;156.30;;;49.28;;
68484;SDS011;55472;50.060;21.960;2023-03-01T00:26:10;172.13;;;49.00;;
68484;SDS011;55472;50.060;21.960;2023-03-01T00:28:38;154.85;;;50.08;;
68484;SDS011;55472;50.060;21.960;2023-03-01T00:31:06;156.93;;;50.70;;
68484;SDS011;55472;50.060;21.960;2023-03-01T00:33:34;150.45;;;48.22;;
68484;SDS011;55472;50.060;21.960;2023-03-01T00:36:01;141.00;;;46.50;;
68484;SDS011;55472;50.060;21.960;2023-03-01T00:38:28;164.10;;;49.77;;
68484;SDS011;55472;50.060;21.960;2023-03-01T00:40:55;156.80;;;49.45;;
68484;SDS011;55472;50.060;21.960;2023-03-01T00:43:29;150.18;;;45.60;;
68484;SDS011;55472;50.060;21.960;2023-03-01T00:46:00;154.82;;;48.70;;
68484;SDS011;55472;50.060;21.960;2023-03-01T00:48:26;153.00;;;46.75;;
68484;SDS011;55472;50.060;21.960;2023-03-01T00:50:53;164.67;;;49.17;;
68484;SDS011;55472;50.060;21.960;2023-03-01T00:53:19;156.20;;;49.45;;
68484;SDS011;55472;50.060;21.960;2023-03-01T00:55:45;148.90;;;46.88;;
68484;SDS011;55472;50.060;21.960;2023-03-01T00:58:11;157.85;;;47.00;;
68484;SDS011;55472;50.060;21.960;2023-03-01T01:00:38;147.35;;;48.22;;
68484;SDS011;55472;50.060;21.960;2023-03-01T01:03:04;143.90;;;48.37;;
68484;SDS011;55472;50.060;21.960;2023-03-01T01:05:30;153.50;;;45.70;;
68484;SDS011;55472;50.060;21.960;2023-03-01T01:07:59;141.30;;;46.50;;
68484;SDS011;55472;50.060;21.960;2023-03-01T01:10:26;158.10;;;48.05;;
68484;SDS011;55472;50.060;21.960;2023-03-01T01:12:52;142.65;;;46.30;;
68484;SDS011;55472;50.060;21.960;2023-03-01T01:15:18;157.47;;;46.10;;
68484;SDS011;55472;50.060;21.960;2023-03-01T01:17:44;150.93;;;45.38;;
68484;SDS011;55472;50.060;21.960;2023-03-01T01:20:11;154.82;;;48.40;;
68484;SDS011;55472;50.060;21.960;2023-03-01T01:22:37;147.25;;;45.53;;
68484;SDS011;55472;50.060;21.960;2023-03-01T01:25:04;153.32;;;46.10;;
68484;SDS011;55472;50.060;21.960;2023-03-01T01:27:31;142.50;;;47.03;;
68484;SDS011;55472;50.060;21.960;2023-03-01T01:29:57;138.70;;;47.22;;
68484;SDS011;55472;50.060;21.960;2023-03-01T01:32:23;132.18;;;44.17;;
68484;SDS011;55472;50.060;21.960;2023-03-01T01:34:49;127.85;;;42.10;;
68484;SDS011;55472;50.060;21.960;2023-03-01T01:37:15;133.18;;;42.72;;
68484;SDS011;55472;50.060;21.960;2023-03-01T01:39:42;123.80;;;42.27;;
68484;SDS011;55472;50.060;21.960;2023-03-01T01:42:17;133.20;;;41.28;;
68484;SDS011;55472;50.060;21.960;2023-03-01T01:44:45;121.50;;;40.03;;
68484;SDS011;55472;50.060;21.960;2023-03-01T01:47:13;128.85;;;40.13;;
68484;SDS011;55472;50.060;21.960;2023-03-01T01:49:48;130.00;;;43.20;;
68484;SDS011;55472;50.060;21.960;2023-03-01T01:55:07;118.28;;;41.75;;
68484;SDS011;55472;50.060;21.960;2023-03-01T01:57:41;116.88;;;40.17;;
68484;SDS011;55472;50.060;21.960;2023-03-01T02:00:13;119.82;;;39.13;;
68484;SDS011;55472;50.060;21.960;2023-03-01T02:02:46;124.35;;;40.67;;
68484;SDS011;55472;50.060;21.960;2023-03-01T02:05:50;120.20;;;39.83;;
68484;SDS011;55472;50.060;21.960;2023-03-01T02:08:47;103.32;;;36.72;;
68484;SDS011;55472;50.060;21.960;2023-03-01T02:11:15;116.30;;;38.35;;
68484;SDS011;55472;50.060;21.960;2023-03-01T02:13:44;115.70;;;38.88;;
68484;SDS011;55472;50.060;21.960;2023-03-01T02:16:13;116.00;;;38.67;;
68484;SDS011;55472;50.060;21.960;2023-03-01T02:18:41;112.10;;;39.73;;
68484;SDS011;55472;50.060;21.960;2023-03-01T02:27:16;121.93;;;38.97;;
68484;SDS011;55472;50.060;21.960;2023-03-01T02:29:50;131.38;;;41.75;;
68484;SDS011;55472;50.060;21.960;2023-03-01T02:32:16;113.07;;;39.37;;
68484;SDS011;55472;50.060;21.960;2023-03-01T02:34:53;104.35;;;36.90;;
68484;SDS011;55472;50.060;21.960;2023-03-01T02:37:21;115.25;;;39.70;;
68484;SDS011;55472;50.060;21.960;2023-03-01T02:39:54;125.75;;;38.53;;
68484;SDS011;55472;50.060;21.960;2023-03-01T02:42:30;111.15;;;38.67;;
68484;SDS011;55472;50.060;21.960;2023-03-01T02:45:01;116.40;;;37.60;;
68484;SDS011;55472;50.060;21.960;2023-03-01T02:47:29;95.38;;;35.05;;
68484;SDS011;55472;50.060;21.960;2023-03-01T02:49:55;117.97;;;39.75;;
68484;SDS011;55472;50.060;21.960;2023-03-01T02:52:40;121.18;;;40.47;;
68484;SDS011;55472;50.060;21.960;2023-03-01T02:55:16;116.50;;;39.10;;
68484;SDS011;55472;50.060;21.960;2023-03-01T02:57:44;101.87;;;36.03;;
68484;SDS011;55472;50.060;21.960;2023-03-01T03:00:20;99.47;;;36.28;;
68484;SDS011;55472;50.060;21.960;2023-03-01T03:02:52;118.38;;;38.50;;
68484;SDS011;55472;50.060;21.960;2023-03-01T03:05:27;122.60;;;38.75;;
68484;SDS011;55472;50.060;21.960;2023-03-01T03:07:59;115.53;;;35.70;;
68484;SDS011;55472;50.060;21.960;2023-03-01T03:10:29;116.20;;;37.00;;
68484;SDS011;55472;50.060;21.960;2023-03-01T03:13:05;115.18;;;38.30;;
68484;SDS011;55472;50.060;21.960;2023-03-01T03:15:35;117.47;;;37.25;;
68484;SDS011;55472;50.060;21.960;2023-03-01T03:18:05;118.68;;;37.45;;
68484;SDS011;55472;50.060;21.960;2023-03-01T03:20:35;115.13;;;38.70;;
68484;SDS011;55472;50.060;21.960;2023-03-01T03:23:03;116.33;;;38.33;;
68484;SDS011;55472;50.060;21.960;2023-03-01T03:25:29;117.05;;;40.35;;
68484;SDS011;55472;50.060;21.960;2023-03-01T03:27:56;106.43;;;37.88;;
68484;SDS011;55472;50.060;21.960;2023-03-01T03:30:30;119.68;;;39.15;;
68484;SDS011;55472;50.060;21.960;2023-03-01T03:32:57;105.30;;;35.47;;
68484;SDS011;55472;50.060;21.960;2023-03-01T03:35:34;101.40;;;35.63;;
68484;SDS011;55472;50.060;21.960;2023-03-01T03:38:10;109.22;;;36.28;;
68484;SDS011;55472;50.060;21.960;2023-03-01T03:40:45;105.40;;;35.25;;
68484;SDS011;55472;50.060;21.960;2023-03-01T03:43:18;91.05;;;33.40;;
68484;SDS011;55472;50.060;21.960;2023-03-01T03:45:50;97.95;;;32.72;;
68484;SDS011;55472;50.060;21.960;2023-03-01T03:48:17;109.73;;;36.27;;
68484;SDS011;55472;50.060;21.960;2023-03-01T03:50:47;108.50;;;34.95;;
68484;SDS011;55472;50.060;21.960;2023-03-01T03:53:16;112.60;;;34.50;;
68484;SDS011;55472;50.060;21.960;2023-03-01T03:55:43;108.85;;;33.63;;
68484;SDS011;55472;50.060;21.960;2023-03-01T03:58:10;87.60;;;32.63;;
68484;SDS011;55472;50.060;21.960;2023-03-01T04:00:38;106.43;;;33.63;;
68484;SDS011;55472;50.060;21.960;2023-03-01T04:03:07;98.22;;;31.40;;
68484;SDS011;55472;50.060;21.960;2023-03-01T04:05:35;101.43;;;32.67;;
68484;SDS011;55472;50.060;21.960;2023-03-01T04:08:02;103.72;;;34.17;;
68484;SDS011;55472;50.060;21.960;2023-03-01T04:10:39;100.55;;;33.20;;
68484;SDS011;55472;50.060;21.960;2023-03-01T04:13:09;92.43;;;30.13;;
68484;SDS011;55472;50.060;21.960;2023-03-01T04:15:39;105.10;;;34.58;;
68484;SDS011;55472;50.060;21.960;2023-03-01T04:18:06;97.50;;;31.95;;
68484;SDS011;55472;50.060;21.960;2023-03-01T04:20:33;89.13;;;29.83;;
68484;SDS011;55472;50.060;21.960;2023-03-01T04:23:05;93.43;;;30.80;;
68484;SDS011;55472;50.060;21.960;2023-03-01T04:25:54;93.10;;;30.93;;
68484;SDS011;55472;50.060;21.960;2023-03-01T04:28:23;92.10;;;30.42;;
68484;SDS011;55472;50.060;21.960;2023-03-01T04:31:03;81.15;;;30.08;;
68484;SDS011;55472;50.060;21.960;2023-03-01T04:33:43;93.35;;;31.20;;
68484;SDS011;55472;50.060;21.960;2023-03-01T04:36:13;92.10;;;31.65;;
68484;SDS011;55472;50.060;21.960;2023-03-01T04:38:42;96.93;;;30.63;;
68484;SDS011;55472;50.060;21.960;2023-03-01T04:41:13;88.50;;;29.65;;
68484;SDS011;55472;50.060;21.960;2023-03-01T04:43:42;86.47;;;31.42;;
68484;SDS011;55472;50.060;21.960;2023-03-01T04:46:10;86.90;;;29.70;;
68484;SDS011;55472;50.060;21.960;2023-03-01T04:48:40;90.05;;;31.58;;
68484;SDS011;55472;50.060;21.960;2023-03-01T04:51:08;89.57;;;31.53;;
68484;SDS011;55472;50.060;21.960;2023-03-01T04:53:34;97.03;;;32.35;;
68484;SDS011;55472;50.060;21.960;2023-03-01T04:56:04;94.50;;;29.88;;
68484;SDS011;55472;50.060;21.960;2023-03-01T04:58:30;95.38;;;29.95;;
68484;SDS011;55472;50.060;21.960;2023-03-01T05:00:57;85.45;;;31.05;;
68484;SDS011;55472;50.060;21.960;2023-03-01T05:03:23;88.30;;;31.53;;
68484;SDS011;55472;50.060;21.960;2023-03-01T05:05:50;85.53;;;30.27;;
68484;SDS011;55472;50.060;21.960;2023-03-01T05:08:18;94.18;;;31.20;;
68484;SDS011;55472;50.060;21.960;2023-03-01T05:10:52;91.35;;;31.38;;
68484;SDS011;55472;50.060;21.960;2023-03-01T05:13:19;87.68;;;30.88;;
68484;SDS011;55472;50.060;21.960;2023-03-01T05:15:47;96.00;;;29.50;;
68484;SDS011;55472;50.060;21.960;2023-03-01T05:18:22;87.82;;;29.85;;
68484;SDS011;55472;50.060;21.960;2023-03-01T05:20:53;87.43;;;32.10;;
68484;SDS011;55472;50.060;21.960;2023-03-01T05:23:24;91.50;;;29.48;;
68484;SDS011;55472;50.060;21.960;2023-03-01T05:25:50;85.28;;;30.02;;
68484;SDS011;55472;50.060;21.960;2023-03-01T05:28:18;89.07;;;29.67;;
68484;SDS011;55472;50.060;21.960;2023-03-01T05:30:45;99.15;;;31.33;;
68484;SDS011;55472;50.060;21.960;2023-03-01T05:33:12;86.15;;;28.13;;
68484;SDS011;55472;50.060;21.960;2023-03-01T05:35:41;140.75;;;39.67;;
68484;SDS011;55472;50.060;21.960;2023-03-01T05:38:10;121.97;;;37.25;;
68484;SDS011;55472;50.060;21.960;2023-03-01T05:40:44;125.43;;;36.57;;
68484;SDS011;55472;50.060;21.960;2023-03-01T05:43:13;99.75;;;31.30;;
68484;SDS011;55472;50.060;21.960;2023-03-01T05:45:42;95.70;;;30.92;;
68484;SDS011;55472;50.060;21.960;2023-03-01T05:48:09;105.85;;;32.28;;
68484;SDS011;55472;50.060;21.960;2023-03-01T05:50:37;108.05;;;33.53;;
68484;SDS011;55472;50.060;21.960;2023-03-01T05:53:09;115.57;;;35.43;;
68484;SDS011;55472;50.060;21.960;2023-03-01T05:55:41;144.05;;;44.53;;
68484;SDS011;55472;50.060;21.960;2023-03-01T05:58:12;162.95;;;46.72;;
68484;SDS011;55472;50.060;21.960;2023-03-01T06:00:45;122.55;;;37.55;;
68484;SDS011;55472;50.060;21.960;2023-03-01T06:03:14;111.47;;;34.95;;
68484;SDS011;55472;50.060;21.960;2023-03-01T06:05:42;161.03;;;47.83;;
68484;SDS011;55472;50.060;21.960;2023-03-01T06:08:10;113.50;;;37.88;;
68484;SDS011;55472;50.060;21.960;2023-03-01T06:10:37;126.00;;;39.90;;
68484;SDS011;55472;50.060;21.960;2023-03-01T06:13:04;122.55;;;38.33;;
68484;SDS011;55472;50.060;21.960;2023-03-01T06:15:30;116.88;;;38.60;;
68484;SDS011;55472;50.060;21.960;2023-03-01T06:17:57;87.63;;;31.00;;
68484;SDS011;55472;50.060;21.960;2023-03-01T06:20:25;83.35;;;28.25;;
68484;SDS011;55472;50.060;21.960;2023-03-01T06:22:54;128.07;;;38.47;;
68484;SDS011;55472;50.060;21.960;2023-03-01T06:25:22;111.88;;;36.55;;
68484;SDS011;55472;50.060;21.960;2023-03-01T06:27:51;115.65;;;38.45;;
68484;SDS011;55472;50.060;21.960;2023-03-01T06:30:18;105.27;;;34.00;;
68484;SDS011;55472;50.060;21.960;2023-03-01T06:32:47;90.50;;;28.45;;
68484;SDS011;55472;50.060;21.960;2023-03-01T06:35:14;103.80;;;33.95;;
68484;SDS011;55472;50.060;21.960;2023-03-01T06:37:46;96.90;;;31.60;;
68484;SDS011;55472;50.060;21.960;2023-03-01T06:40:14;101.85;;;34.15;;
68484;SDS011;55472;50.060;21.960;2023-03-01T06:42:42;102.43;;;33.80;;
68484;SDS011;55472;50.060;21.960;2023-03-01T06:45:14;109.35;;;35.95;;
68484;SDS011;55472;50.060;21.960;2023-03-01T06:47:44;99.25;;;34.10;;
68484;SDS011;55472;50.060;21.960;2023-03-01T06:50:11;92.18;;;33.20;;
68484;SDS011;55472;50.060;21.960;2023-03-01T06:52:38;105.82;;;34.30;;
68484;SDS011;55472;50.060;21.960;2023-03-01T06:55:05;99.20;;;34.73;;
68484;SDS011;55472;50.060;21.960;2023-03-01T06:57:32;137.98;;;45.30;;
68484;SDS011;55472;50.060;21.960;2023-03-01T06:59:58;129.15;;;42.28;;
68484;SDS011;55472;50.060;21.960;2023-03-01T07:02:25;80.10;;;27.48;;
68484;SDS011;55472;50.060;21.960;2023-03-01T07:04:51;133.75;;;37.60;;
68484;SDS011;55472;50.060;21.960;2023-03-01T07:07:18;124.47;;;37.30;;
68484;SDS011;55472;50.060;21.960;2023-03-01T07:09:44;171.40;;;49.45;;
68484;SDS011;55472;50.060;21.960;2023-03-01T07:12:11;240.65;;;68.03;;
68484;SDS011;55472;50.060;21.960;2023-03-01T07:14:37;143.60;;;41.22;;
68484;SDS011;55472;50.060;21.960;2023-03-01T07:17:04;107.38;;;33.83;;
68484;SDS011;55472;50.060;21.960;2023-03-01T07:19:30;76.73;;;26.20;;
68484;SDS011;55472;50.060;21.960;2023-03-01T07:21:56;87.03;;;26.38;;
68484;SDS011;55472;50.060;21.960;2023-03-01T07:24:22;91.10;;;30.15;;
68484;SDS011;55472;50.060;21.960;2023-03-01T07:26:50;144.88;;;47.92;;
68484;SDS011;55472;50.060;21.960;2023-03-01T07:29:16;78.28;;;26.52;;
68484;SDS011;55472;50.060;21.960;2023-03-01T07:31:43;72.20;;;22.93;;
68484;SDS011;55472;50.060;21.960;2023-03-01T07:34:10;63.75;;;20.98;;
68484;SDS011;55472;50.060;21.960;2023-03-01T07:36:36;57.15;;;20.30;;
68484;SDS011;55472;50.060;21.960;2023-03-01T07:39:04;64.50;;;21.80;;
68484;SDS011;55472;50.060;21.960;2023-03-01T07:41:31;66.53;;;22.20;;
68484;SDS011;55472;50.060;21.960;2023-03-01T07:43:57;59.17;;;21.47;;
68484;SDS011;55472;50.060;21.960;2023-03-01T07:46:23;64.50;;;22.80;;
68484;SDS011;55472;50.060;21.960;2023-03-01T07:48:49;57.90;;;20.08;;
68484;SDS011;55472;50.060;21.960;2023-03-01T07:51:16;60.40;;;21.23;;
68484;SDS011;55472;50.060;21.960;2023-03-01T07:53:42;52.63;;;19.55;;
68484;SDS011;55472;50.060;21.960;2023-03-01T07:56:12;57.40;;;20.47;;
68484;SDS011;55472;50.060;21.960;2023-03-01T07:58:41;58.03;;;21.58;;
68484;SDS011;55472;50.060;21.960;2023-03-01T08:01:10;54.45;;;20.10;;
68484;SDS011;55472;50.060;21.960;2023-03-01T08:03:38;51.55;;;19.83;;
68484;SDS011;55472;50.060;21.960;2023-03-01T08:06:08;54.08;;;20.13;;
68484;SDS011;55472;50.060;21.960;2023-03-01T08:08:36;54.57;;;20.20;;
68484;SDS011;55472;50.060;21.960;2023-03-01T08:11:03;49.92;;;19.25;;
68484;SDS011;55472;50.060;21.960;2023-03-01T08:13:31;48.65;;;18.20;;
68484;SDS011;55472;50.060;21.960;2023-03-01T08:16:05;48.40;;;18.02;;
68484;SDS011;55472;50.060;21.960;2023-03-01T08:18:38;43.40;;;16.73;;
68484;SDS011;55472;50.060;21.960;2023-03-01T08:21:05;40.00;;;15.90;;
68484;SDS011;55472;50.060;21.960;2023-03-01T08:23:37;35.92;;;13.80;;
68484;SDS011;55472;50.060;21.960;2023-03-01T08:26:12;31.15;;;12.68;;
68484;SDS011;55472;50.060;21.960;2023-03-01T08:28:44;37.78;;;14.90;;
68484;SDS011;55472;50.060;21.960;2023-03-01T08:34:01;25.90;;;10.77;;
68484;SDS011;55472;50.060;21.960;2023-03-01T08:36:32;25.23;;;10.18;;
68484;SDS011;55472;50.060;21.960;2023-03-01T08:39:05;20.30;;;8.18;;
68484;SDS011;55472;50.060;21.960;2023-03-01T08:41:33;20.17;;;8.02;;
68484;SDS011;55472;50.060;21.960;2023-03-01T08:43:59;21.13;;;8.52;;
68484;SDS011;55472;50.060;21.960;2023-03-01T08:46:26;22.10;;;9.00;;
68484;SDS011;55472;50.060;21.960;2023-03-01T08:48:54;25.17;;;10.55;;
68484;SDS011;55472;50.060;21.960;2023-03-01T08:51:21;21.58;;;8.30;;
68484;SDS011;55472;50.060;21.960;2023-03-01T08:53:49;23.05;;;8.73;;
68484;SDS011;55472;50.060;21.960;2023-03-01T08:56:16;21.88;;;9.02;;
68484;SDS011;55472;50.060;21.960;2023-03-01T08:58:47;16.50;;;7.27;;
68484;SDS011;55472;50.060;21.960;2023-03-01T09:01:15;16.73;;;7.13;;
68484;SDS011;55472;50.060;21.960;2023-03-01T09:03:43;19.75;;;8.27;;
68484;SDS011;55472;50.060;21.960;2023-03-01T09:06:10;16.85;;;7.45;;
68484;SDS011;55472;50.060;21.960;2023-03-01T09:08:38;19.58;;;7.75;;
68484;SDS011;55472;50.060;21.960;2023-03-01T09:11:07;23.77;;;9.60;;
68484;SDS011;55472;50.060;21.960;2023-03-01T09:13:36;23.92;;;10.25;;
68484;SDS011;55472;50.060;21.960;2023-03-01T09:16:10;22.77;;;11.00;;
68484;SDS011;55472;50.060;21.960;2023-03-01T09:18:45;21.75;;;10.77;;
68484;SDS011;55472;50.060;21.960;2023-03-01T09:21:16;23.60;;;12.02;;
68484;SDS011;55472;50.060;21.960;2023-03-01T09:23:44;25.13;;;12.50;;
68484;SDS011;55472;50.060;21.960;2023-03-01T09:26:14;26.20;;;13.40;;
68484;SDS011;55472;50.060;21.960;2023-03-01T09:28:54;31.25;;;14.60;;
68484;SDS011;55472;50.060;21.960;2023-03-01T09:31:31;32.22;;;14.90;;
68484;SDS011;55472;50.060;21.960;2023-03-01T09:33:57;31.88;;;15.90;;
68484;SDS011;55472;50.060;21.960;2023-03-01T09:36:24;29.13;;;15.53;;
68484;SDS011;55472;50.060;21.960;2023-03-01T09:38:53;28.27;;;15.32;;
68484;SDS011;55472;50.060;21.960;2023-03-01T09:47:43;30.25;;;15.63;;
68484;SDS011;55472;50.060;21.960;2023-03-01T09:50:20;30.97;;;15.27;;
68484;SDS011;55472;50.060;21.960;2023-03-01T09:52:54;29.17;;;15.23;;
68484;SDS011;55472;50.060;21.960;2023-03-01T09:55:39;30.75;;;14.98;;
68484;SDS011;55472;50.060;21.960;2023-03-01T10:01:11;30.70;;;14.98;;
68484;SDS011;55472;50.060;21.960;2023-03-01T10:03:57;27.97;;;14.23;;
68484;SDS011;55472;50.060;21.960;2023-03-01T10:07:07;27.42;;;13.93;;
68484;SDS011;55472;50.060;21.960;2023-03-01T10:09:47;29.83;;;13.80;;
68484;SDS011;55472;50.060;21.960;2023-03-01T10:12:18;30.60;;;14.32;;
68484;SDS011;55472;50.060;21.960;2023-03-01T10:17:48;30.70;;;14.23;;
68484;SDS011;55472;50.060;21.960;2023-03-01T10:23:34;29.73;;;13.63;;
68484;SDS011;55472;50.060;21.960;2023-03-01T10:26:23;26.88;;;13.20;;
68484;SDS011;55472;50.060;21.960;2023-03-01T10:29:23;27.55;;;12.95;;
68484;SDS011;55472;50.060;21.960;2023-03-01T10:32:05;26.73;;;11.90;;
68484;SDS011;55472;50.060;21.960;2023-03-01T10:34:33;30.25;;;13.48;;
68484;SDS011;55472;50.060;21.960;2023-03-01T10:37:07;26.98;;;12.88;;
68484;SDS011;55472;50.060;21.960;2023-03-01T10:40:21;25.55;;;11.80;;
68484;SDS011;55472;50.060;21.960;2023-03-01T10:42:47;27.95;;;13.00;;
68484;SDS011;55472;50.060;21.960;2023-03-01T10:45:16;31.53;;;13.83;;
68484;SDS011;55472;50.060;21.960;2023-03-01T10:48:15;27.60;;;12.88;;
68484;SDS011;55472;50.060;21.960;2023-03-01T10:53:34;30.33;;;12.02;;
68484;SDS011;55472;50.060;21.960;2023-03-01T10:56:17;26.23;;;12.38;;
68484;SDS011;55472;50.060;21.960;2023-03-01T10:58:59;24.57;;;12.13;;
68484;SDS011;55472;50.060;21.960;2023-03-01T11:01:33;30.42;;;12.32;;
68484;SDS011;55472;50.060;21.960;2023-03-01T11:06:43;23.92;;;11.73;;
68484;SDS011;55472;50.060;21.960;2023-03-01T11:09:32;26.73;;;12.05;;
68484;SDS011;55472;50.060;21.960;2023-03-01T11:12:13;26.83;;;12.53;;
68484;SDS011;55472;50.060;21.960;2023-03-01T11:14:51;21.38;;;11.02;;
68484;SDS011;55472;50.060;21.960;2023-03-01T11:17:30;24.23;;;11.70;;
68484;SDS011;55472;50.060;21.960;2023-03-01T11:20:40;22.33;;;11.18;;
68484;SDS011;55472;50.060;21.960;2023-03-01T11:22:56;28.48;;;13.10;;
68484;SDS011;55472;50.060;21.960;2023-03-01T11:25:48;25.30;;;12.37;;
68484;SDS011;55472;50.060;21.960;2023-03-01T11:28:26;23.33;;;11.18;;
68484;SDS011;55472;50.060;21.960;2023-03-01T11:31:28;23.02;;;11.07;;
68484;SDS011;55472;50.060;21.960;2023-03-01T11:33:54;24.52;;;11.98;;
68484;SDS011;55472;50.060;21.960;2023-03-01T11:42:11;23.88;;;11.35;;
68484;SDS011;55472;50.060;21.960;2023-03-01T11:44:44;25.48;;;12.30;;
68484;SDS011;55472;50.060;21.960;2023-03-01T11:47:25;27.55;;;12.68;;
68484;SDS011;55472;50.060;21.960;2023-03-01T11:55:47;22.63;;;10.68;;
68484;SDS011;55472;50.060;21.960;2023-03-01T12:16:09;18.15;;;9.07;;
68484;SDS011;55472;50.060;21.960;2023-03-01T12:21:53;15.97;;;7.80;;
68484;SDS011;55472;50.060;21.960;2023-03-01T12:47:13;17.85;;;8.18;;
68484;SDS011;55472;50.060;21.960;2023-03-01T12:50:04;18.60;;;7.60;;
68484;SDS011;55472;50.060;21.960;2023-03-01T13:02:02;15.00;;;6.70;;
68484;SDS011;55472;50.060;21.960;2023-03-01T13:07:41;14.50;;;6.35;;
68484;SDS011;55472;50.060;21.960;2023-03-01T13:10:40;14.02;;;6.13;;
68484;SDS011;55472;50.060;21.960;2023-03-01T13:16:59;14.75;;;6.38;;
68484;SDS011;55472;50.060;21.960;2023-03-01T13:19:30;15.10;;;6.60;;
68484;SDS011;55472;50.060;21.960;2023-03-01T13:21:57;14.05;;;6.30;;
68484;SDS011;55472;50.060;21.960;2023-03-01T13:29:57;15.60;;;6.60;;
68484;SDS011;55472;50.060;21.960;2023-03-01T13:32:35;15.33;;;6.90;;
68484;SDS011;55472;50.060;21.960;2023-03-01T13:37:42;15.02;;;6.47;;
68484;SDS011;55472;50.060;21.960;2023-03-01T13:42:49;14.10;;;6.05;;
68484;SDS011;55472;50.060;21.960;2023-03-01T13:45:35;16.20;;;6.93;;
68484;SDS011;55472;50.060;21.960;2023-03-01T13:48:09;14.70;;;6.63;;
68484;SDS011;55472;50.060;21.960;2023-03-01T13:50:52;14.85;;;6.65;;
68484;SDS011;55472;50.060;21.960;2023-03-01T13:53:34;12.65;;;6.47;;
68484;SDS011;55472;50.060;21.960;2023-03-01T13:56:14;14.82;;;6.53;;
68484;SDS011;55472;50.060;21.960;2023-03-01T13:58:53;13.67;;;6.43;;
68484;SDS011;55472;50.060;21.960;2023-03-01T14:01:34;17.15;;;7.38;;
68484;SDS011;55472;50.060;21.960;2023-03-01T14:04:02;14.80;;;7.10;;
68484;SDS011;55472;50.060;21.960;2023-03-01T14:06:51;16.83;;;6.95;;
68484;SDS011;55472;50.060;21.960;2023-03-01T14:20:17;16.13;;;6.82;;
68484;SDS011;55472;50.060;21.960;2023-03-01T14:22:49;16.05;;;6.63;;
68484;SDS011;55472;50.060;21.960;2023-03-01T14:25:35;16.40;;;6.20;;
68484;SDS011;55472;50.060;21.960;2023-03-01T14:30:52;16.27;;;6.65;;
68484;SDS011;55472;50.060;21.960;2023-03-01T14:36:01;14.13;;;6.40;;
68484;SDS011;55472;50.060;21.960;2023-03-01T14:38:33;15.00;;;6.80;;
68484;SDS011;55472;50.060;21.960;2023-03-01T14:41:24;17.92;;;6.70;;
68484;SDS011;55472;50.060;21.960;2023-03-01T14:46:29;16.17;;;6.88;;
68484;SDS011;55472;50.060;21.960;2023-03-01T14:49:04;40.83;;;15.20;;
68484;SDS011;55472;50.060;21.960;2023-03-01T14:54:41;16.27;;;6.22;;
68484;SDS011;55472;50.060;21.960;2023-03-01T14:57:16;15.70;;;6.63;;
68484;SDS011;55472;50.060;21.960;2023-03-01T14:59:50;17.10;;;7.07;;
68484;SDS011;55472;50.060;21.960;2023-03-01T15:02:20;17.83;;;6.80;;
68484;SDS011;55472;50.060;21.960;2023-03-01T15:04:51;15.90;;;6.23;;
68484;SDS011;55472;50.060;21.960;2023-03-01T15:07:47;15.48;;;6.30;;
68484;SDS011;55472;50.060;21.960;2023-03-01T15:10:16;16.92;;;6.43;;
68484;SDS011;55472;50.060;21.960;2023-03-01T15:12:53;15.25;;;6.13;;
68484;SDS011;55472;50.060;21.960;2023-03-01T15:17:50;16.30;;;7.13;;
68484;SDS011;55472;50.060;21.960;2023-03-01T15:20:24;32.67;;;10.98;;
68484;SDS011;55472;50.060;21.960;2023-03-01T15:22:54;20.67;;;8.23;;
68484;SDS011;55472;50.060;21.960;2023-03-01T15:25:23;20.75;;;8.07;;
68484;SDS011;55472;50.060;21.960;2023-03-01T15:27:52;23.35;;;8.57;;
68484;SDS011;55472;50.060;21.960;2023-03-01T15:30:27;18.20;;;7.47;;
68484;SDS011;55472;50.060;21.960;2023-03-01T15:33:19;20.60;;;7.85;;
68484;SDS011;55472;50.060;21.960;2023-03-01T15:35:55;21.35;;;8.65;;
68484;SDS011;55472;50.060;21.960;2023-03-01T15:38:29;19.73;;;7.10;;
68484;SDS011;55472;50.060;21.960;2023-03-01T15:41:24;16.60;;;6.40;;
68484;SDS011;55472;50.060;21.960;2023-03-01T15:44:15;17.73;;;7.67;;
68484;SDS011;55472;50.060;21.960;2023-03-01T15:47:05;19.38;;;6.28;;
68484;SDS011;55472;50.060;21.960;2023-03-01T15:49:50;17.17;;;6.10;;
68484;SDS011;55472;50.060;21.960;2023-03-01T15:52:24;16.25;;;6.20;;
68484;SDS011;55472;50.060;21.960;2023-03-01T15:57:49;21.53;;;7.47;;
68484;SDS011;55472;50.060;21.960;2023-03-01T16:00:25;17.33;;;7.07;;
68484;SDS011;55472;50.060;21.960;2023-03-01T16:02:52;17.65;;;6.50;;
68484;SDS011;55472;50.060;21.960;2023-03-01T16:05:20;20.30;;;6.57;;
68484;SDS011;55472;50.060;21.960;2023-03-01T16:07:53;20.27;;;6.47;;
68484;SDS011;55472;50.060;21.960;2023-03-01T16:10:20;18.97;;;6.70;;
68484;SDS011;55472;50.060;21.960;2023-03-01T16:12:48;20.30;;;7.47;;
68484;SDS011;55472;50.060;21.960;2023-03-01T16:17:55;24.88;;;8.32;;
68484;SDS011;55472;50.060;21.960;2023-03-01T16:20:23;28.70;;;9.38;;
68484;SDS011;55472;50.060;21.960;2023-03-01T16:22:51;25.47;;;8.40;;
68484;SDS011;55472;50.060;21.960;2023-03-01T16:25:18;23.33;;;8.75;;
68484;SDS011;55472;50.060;21.960;2023-03-01T16:27:47;24.38;;;7.72;;
68484;SDS011;55472;50.060;21.960;2023-03-01T16:30:17;19.85;;;7.38;;
68484;SDS011;55472;50.060;21.960;2023-03-01T16:32:47;23.58;;;7.70;;
68484;SDS011;55472;50.060;21.960;2023-03-01T16:35:15;21.40;;;6.80;;
68484;SDS011;55472;50.060;21.960;2023-03-01T16:37:45;21.35;;;6.95;;
68484;SDS011;55472;50.060;21.960;2023-03-01T16:40:21;50.88;;;14.57;;
68484;SDS011;55472;50.060;21.960;2023-03-01T16:42:53;48.95;;;15.23;;
68484;SDS011;55472;50.060;21.960;2023-03-01T16:45:24;27.60;;;9.10;;
68484;SDS011;55472;50.060;21.960;2023-03-01T16:47:52;25.20;;;8.97;;
68484;SDS011;55472;50.060;21.960;2023-03-01T16:50:19;19.02;;;7.07;;
68484;SDS011;55472;50.060;21.960;2023-03-01T16:52:45;18.33;;;6.43;;
68484;SDS011;55472;50.060;21.960;2023-03-01T16:55:11;24.60;;;8.98;;
68484;SDS011;55472;50.060;21.960;2023-03-01T16:57:38;27.20;;;9.05;;
68484;SDS011;55472;50.060;21.960;2023-03-01T17:00:06;48.77;;;14.43;;
68484;SDS011;55472;50.060;21.960;2023-03-01T17:02:38;48.80;;;13.85;;